Poli, China
Current Conditions -  °F | °C
As of 10:00 AM on Tuesday 21 Oct 2014 (Local Time) from ZSQD Reporting Station
Haze Haze  
Wind Chill: 59°   Ceiling: 5000
Heat Index: 59°   Visibility: 2.8mi
Dew Point: 52°   Wind: 13mph
Humidity: 77%   Direction: 360°N
Pressure: 30.09"   Gusts: NA
Location:  35.7°N, 119.77°E
Report Text: ZSQD 210200Z 36006MPS 4500 BR SCT016 BKN050 15/11 Q1019 NOSIG
Loading
Personal Weather Stations






























Interactive Weather Map
Tropical Storm Tracking
New forecast layout! Learn more

10-Day Weather Forecast

Advertisements
Track Severe Weather on mobile